Time;durP1;ratioP1;P1;durP2;ratioP2;P2;SDS_P1;SDS_P2;PMS_P1;PMS_P2;Temp;Humidity;BMP_temperature;BMP_pressure;BME280_temperature;BME280_humidity;BME280_pressure;Samples;Min_cycle;Max_cycle;Signal;HPM_P1;HPM_P2
2022/06/14 00:01:34;;;;;;;12.48;2.78;;;12.70;99.90;;;;;;5044247;28;20471;-75
2022/06/14 00:04:00;;;;;;;14.32;2.95;;;12.70;99.90;;;;;;5033983;28;20100;-76
2022/06/14 00:06:30;;;;;;;7.38;2.50;;;12.60;99.90;;;;;;5034276;28;20040;-76
2022/06/14 00:08:56;;;;;;;7.07;2.63;;;12.70;99.90;;;;;;5034342;28;20018;-75
2022/06/14 00:11:28;;;;;;;12.25;2.42;;;12.70;99.90;;;;;;5034212;28;20022;-76
2022/06/14 00:13:56;;;;;;;10.70;3.33;;;12.70;99.90;;;;;;5079111;22;20585;-70
2022/06/14 00:16:23;;;;;;;11.57;2.67;;;12.60;99.90;;;;;;5054576;28;20112;-71
2022/06/14 00:18:49;;;;;;;9.32;3.03;;;12.60;99.90;;;;;;5016837;28;20018;-71
2022/06/14 00:21:16;;;;;;;10.10;2.72;;;12.60;99.90;;;;;;5017123;28;20029;-71
2022/06/14 00:23:42;;;;;;;7.65;2.53;;;12.50;99.90;;;;;;5034291;28;20021;-72
2022/06/14 00:26:11;;;;;;;8.10;2.50;;;12.50;99.90;;;;;;5018023;28;20032;-72
2022/06/14 00:28:36;;;;;;;10.35;2.80;;;12.60;99.90;;;;;;5035047;28;20053;-72
2022/06/14 00:31:18;;;;;;;9.32;2.80;;;12.50;99.90;;;;;;5035693;28;20083;-72
2022/06/14 00:33:44;;;;;;;;;;;12.60;99.90;;;;;;5035315;28;20029;-71
2022/06/14 00:36:39;;;;;;;9.63;2.38;;;12.60;99.90;;;;;;5016649;28;19905;-72
2022/06/14 00:39:08;;;;;;;8.40;2.50;;;12.50;99.90;;;;;;5013750;28;20037;-71
2022/06/14 00:41:44;;;;;;;7.88;2.50;;;12.60;99.90;;;;;;5035474;28;20026;-71
2022/06/14 00:44:17;;;;;;;6.80;1.88;;;12.50;99.90;;;;;;5017285;28;20022;-71
2022/06/14 00:47:01;;;;;;;12.05;2.08;;;12.50;99.90;;;;;;5034769;28;20018;-72
2022/06/14 00:49:37;;;;;;;9.75;2.63;;;12.40;99.90;;;;;;5034486;28;20021;-71
2022/06/14 00:52:16;;;;;;;10.52;2.70;;;12.30;99.90;;;;;;5034353;28;20041;-71
2022/06/14 00:54:47;;;;;;;11.45;3.05;;;12.30;99.90;;;;;;5034631;28;20041;-71
2022/06/14 00:57:23;;;;;;;12.45;2.95;;;12.30;99.90;;;;;;5034709;28;20030;-71
2022/06/14 00:59:54;;;;;;;7.68;2.85;;;12.30;99.90;;;;;;5017051;28;20509;-72
2022/06/14 01:02:24;;;;;;;8.30;2.95;;;12.30;99.90;;;;;;5035245;28;20041;-71
2022/06/14 01:04:50;;;;;;;7.47;2.60;;;12.30;99.90;;;;;;5035292;28;20475;-71
2022/06/14 01:07:29;;;;;;;7.57;2.97;;;12.20;99.90;;;;;;5035124;28;20021;-71
2022/06/14 01:10:01;;;;;;;9.35;2.92;;;12.20;99.90;;;;;;5035455;28;20548;-71
2022/06/14 01:12:34;;;;;;;6.18;2.88;;;12.20;99.90;;;;;;5036289;28;20036;-72
2022/06/14 01:15:20;;;;;;;10.75;2.92;;;12.30;99.90;;;;;;5036059;28;20064;-71
2022/06/14 01:18:02;;;;;;;6.97;2.80;;;12.30;99.90;;;;;;5017740;28;20022;-71
2022/06/14 01:20:28;;;;;;;6.47;2.80;;;12.20;99.90;;;;;;5035077;28;20017;-72
2022/06/14 01:22:54;;;;;;;9.30;2.85;;;12.20;99.90;;;;;;5035492;28;20030;-72
2022/06/14 01:25:21;;;;;;;8.70;2.78;;;12.20;99.90;;;;;;5055260;28;20052;-72
2022/06/14 01:27:47;;;;;;;8.20;2.90;;;12.20;99.90;;;;;;5038643;28;20025;-72
2022/06/14 01:30:17;;;;;;;6.28;2.83;;;12.20;99.90;;;;;;5059592;28;20074;-73
2022/06/14 01:32:54;;;;;;;8.20;3.03;;;12.20;99.90;;;;;;5041718;28;20100;-73
2022/06/14 01:35:27;;;;;;;8.20;3.08;;;12.10;99.90;;;;;;5059985;28;20082;-73
2022/06/14 01:37:55;;;;;;;6.93;2.70;;;12.10;99.90;;;;;;5058902;28;20378;-73
2022/06/14 01:40:50;;;;;;;9.30;3.72;;;12.10;99.90;;;;;;5043711;28;20378;-73
2022/06/14 01:43:27;;;;;;;11.07;2.85;;;12.10;99.90;;;;;;5059514;28;20013;-73
2022/06/14 01:46:13;;;;;;;11.77;3.25;;;12.00;99.90;;;;;;5038549;28;20115;-73
2022/06/14 01:48:49;;;;;;;11.98;2.88;;;12.00;99.90;;;;;;5041030;28;20021;-74
2022/06/14 01:54:34;;;;;;;8.98;2.70;;;11.90;99.90;;;;;;5058825;28;20166;-73
2022/06/14 01:57:27;;;;;;;10.57;2.88;;;12.00;99.90;;;;;;5058404;28;20035;-74
2022/06/14 01:59:58;;;;;;;7.15;2.90;;;11.90;99.90;;;;;;5058394;28;20104;-73
2022/06/14 02:02:30;;;;;;;13.32;3.15;;;11.90;99.90;;;;;;5040724;28;20094;-74
2022/06/14 02:05:20;;;;;;;9.63;3.22;;;11.90;99.90;;;;;;5059065;28;20052;-74
2022/06/14 02:08:10;;;;;;;13.90;2.58;;;11.90;99.90;;;;;;5058403;28;20021;-74
2022/06/14 02:10:43;;;;;;;8.80;2.90;;;11.80;99.90;;;;;;5058722;28;20031;-72
2022/06/14 02:13:18;;;;;;;7.13;2.78;;;11.80;99.90;;;;;;5058243;28;20060;-72
2022/06/14 02:16:03;;;;;;;13.10;3.33;;;11.80;99.90;;;;;;5057569;28;20048;-73
2022/06/14 02:19:02;;;;;;;6.53;2.50;;;11.80;99.90;;;;;;5037820;28;20029;-73
2022/06/14 02:21:38;;;;;;;17.23;3.45;;;11.70;99.90;;;;;;5058225;28;20117;-72
2022/06/14 02:24:20;;;;;;;14.75;2.60;;;11.70;99.90;;;;;;5056070;28;20029;-72
2022/06/14 02:26:54;;;;;;;13.18;3.10;;;11.80;99.90;;;;;;5056771;28;20029;-72
2022/06/14 02:29:31;;;;;;;12.95;3.05;;;11.80;99.90;;;;;;5056658;28;20025;-72
2022/06/14 02:32:05;;;;;;;6.90;2.80;;;11.70;99.90;;;;;;5057058;28;20032;-74
2022/06/14 02:34:37;;;;;;;11.98;3.00;;;11.80;99.90;;;;;;5058352;28;20013;-73
2022/06/14 02:37:14;;;;;;;7.97;3.10;;;11.80;99.90;;;;;;5058758;28;20021;-73
2022/06/14 02:39:50;;;;;;;8.07;3.10;;;11.80;99.90;;;;;;5039856;28;20028;-73
2022/06/14 02:42:36;;;;;;;11.60;3.70;;;11.80;99.90;;;;;;5059470;28;20013;-73
2022/06/14 02:45:19;;;;;;;9.10;2.63;;;11.80;99.90;;;;;;5060185;28;20021;-73
2022/06/14 02:47:57;;;;;;;8.55;3.25;;;11.80;99.90;;;;;;5059018;28;20055;-73
2022/06/14 02:50:42;;;;;;;11.23;3.72;;;11.80;99.90;;;;;;5058465;28;20025;-73
2022/06/14 02:53:32;;;;;;;11.57;3.13;;;11.80;99.90;;;;;;5058976;28;20087;-73
2022/06/14 02:56:06;;;;;;;11.02;3.08;;;11.80;99.90;;;;;;5057641;28;20086;-74
2022/06/14 02:59:03;;;;;;;12.05;3.75;;;11.80;99.90;;;;;;5041497;28;20059;-73
2022/06/14 03:01:36;;;;;;;16.30;3.72;;;11.80;99.90;;;;;;5053054;28;20064;-74
2022/06/14 03:04:26;;;;;;;11.48;3.40;;;11.80;99.90;;;;;;5057882;28;20378;-73
2022/06/14 03:07:03;;;;;;;9.85;3.30;;;11.80;99.90;;;;;;5057193;28;20021;-74
2022/06/14 03:09:34;;;;;;;9.50;3.10;;;11.80;99.90;;;;;;5058598;28;20111;-73
2022/06/14 03:12:22;;;;;;;9.70;3.55;;;11.80;99.90;;;;;;5058808;28;20111;-73
2022/06/14 03:15:08;;;;;;;10.95;2.97;;;11.90;99.90;;;;;;5058097;28;20032;-72
2022/06/14 03:17:51;;;;;;;10.45;3.10;;;11.90;99.90;;;;;;5058607;28;20041;-72
2022/06/14 03:20:45;;;;;;;8.23;3.15;;;11.80;99.90;;;;;;5059051;28;20017;-73
2022/06/14 03:23:19;;;;;;;12.60;3.75;;;11.90;99.90;;;;;;5058828;28;20017;-72
2022/06/14 03:26:09;;;;;;;11.93;4.53;;;11.90;99.90;;;;;;5059247;28;20044;-72
2022/06/14 03:28:59;;;;;;;10.13;4.03;;;11.90;99.90;;;;;;5060295;28;20044;-73
2022/06/14 03:31:50;;;;;;;9.13;4.07;;;11.80;99.90;;;;;;5061382;28;20409;-72
2022/06/14 03:34:22;;;;;;;;;;;11.70;99.90;;;;;;5063781;28;20076;-73
2022/06/14 03:36:48;;;;;;;9.82;4.32;;;11.70;99.90;;;;;;5063456;28;19904;-72
2022/06/14 03:39:22;;;;;;;11.35;4.07;;;11.70;99.90;;;;;;5064106;28;20013;-73
2022/06/14 03:41:50;;;;;;;10.20;4.72;;;11.70;99.90;;;;;;5058630;28;20025;-73
2022/06/14 03:44:18;;;;;;;11.95;5.10;;;11.60;99.90;;;;;;5040751;28;20025;-73
2022/06/14 03:47:24;;;;;;;9.98;5.15;;;11.60;99.90;;;;;;5057546;28;20021;-73
2022/06/14 03:49:54;;;;;;;11.45;5.72;;;11.60;99.90;;;;;;5059162;28;20029;-73
2022/06/14 03:52:35;;;;;;;10.45;4.68;;;11.60;99.90;;;;;;5041051;28;20028;-73
2022/06/14 03:55:13;;;;;;;13.65;4.95;;;11.60;99.90;;;;;;5057841;28;20044;-73
2022/06/14 03:58:04;;;;;;;12.15;4.57;;;11.50;99.90;;;;;;5057424;28;20381;-74
2022/06/14 04:00:47;;;;;;;14.70;5.45;;;11.60;99.90;;;;;;5038215;28;20371;-73
2022/06/14 04:03:41;;;;;;;10.80;5.32;;;11.70;99.90;;;;;;5056691;28;20025;-73
2022/06/14 04:06:13;;;;;;;13.30;4.95;;;11.70;99.90;;;;;;5056420;28;20045;-73
2022/06/14 04:09:06;;;;;;;18.35;6.00;;;11.70;99.90;;;;;;5056079;28;20021;-73
2022/06/14 04:12:01;;;;;;;10.82;4.72;;;11.70;99.90;;;;;;5039730;28;20071;-73
2022/06/14 04:14:54;;;;;;;12.48;5.68;;;11.60;99.90;;;;;;5039062;28;20035;-73
2022/06/14 04:17:54;;;;;;;10.75;5.35;;;11.60;99.90;;;;;;5056848;28;20032;-73
2022/06/14 04:20:20;;;;;;;16.65;5.45;;;11.70;99.90;;;;;;4988640;28;20051;-74
2022/06/14 04:22:48;;;;;;;12.68;5.25;;;11.70;99.90;;;;;;5039151;28;20060;-73
2022/06/14 04:25:14;;;;;;;12.95;4.85;;;11.70;99.90;;;;;;5056792;28;20100;-73
2022/06/14 04:27:57;;;;;;;15.75;5.88;;;11.70;99.90;;;;;;5056936;28;20482;-75
2022/06/14 04:30:45;;;;;;;10.27;5.18;;;11.80;99.90;;;;;;5039711;28;20049;-74
2022/06/14 04:33:11;;;;;;;11.30;4.50;;;11.80;99.90;;;;;;5059857;28;20036;-73
2022/06/14 04:35:46;;;;;;;15.40;5.40;;;11.90;99.90;;;;;;5059242;28;20022;-73
2022/06/14 04:38:36;;;;;;;14.43;5.75;;;11.90;99.90;;;;;;5059355;28;20044;-73
2022/06/14 04:41:22;;;;;;;11.05;5.78;;;12.00;99.90;;;;;;5039287;28;20021;-73
2022/06/14 04:43:50;;;;;;;9.43;5.15;;;12.00;99.90;;;;;;5055690;28;20020;-74
2022/06/14 04:46:22;;;;;;;18.38;5.07;;;12.10;99.90;;;;;;5055919;28;20025;-74
2022/06/14 04:49:17;;;;;;;17.90;5.43;;;12.20;99.90;;;;;;5057344;28;20025;-74
2022/06/14 04:51:51;;;;;;;16.52;4.65;;;12.30;99.90;;;;;;5049742;28;20048;-74
2022/06/14 04:54:28;;;;;;;9.73;4.63;;;12.40;99.90;;;;;;5056015;28;20028;-74
2022/06/14 04:57:02;;;;;;;19.35;5.32;;;12.60;99.90;;;;;;5055915;28;20078;-74
2022/06/14 04:59:39;;;;;;;18.08;5.03;;;12.70;99.90;;;;;;5058392;28;20104;-73
2022/06/14 05:02:24;;;;;;;10.75;4.72;;;12.80;99.90;;;;;;5059599;28;20032;-74
2022/06/14 05:04:59;;;;;;;12.32;5.32;;;12.80;99.90;;;;;;5059613;28;20021;-73
2022/06/14 05:07:30;;;;;;;15.80;5.35;;;12.90;99.90;;;;;;5060737;28;20139;-74
2022/06/14 05:10:09;;;;;;;12.10;4.63;;;13.00;99.90;;;;;;5041917;28;20112;-73
2022/06/14 05:12:56;;;;;;;10.13;4.63;;;13.10;99.90;;;;;;5060036;28;20052;-73
2022/06/14 05:15:36;;;;;;;10.77;4.63;;;13.10;99.90;;;;;;5060382;28;20478;-73
2022/06/14 05:18:15;;;;;;;16.33;4.43;;;13.20;99.90;;;;;;5059350;28;20024;-73
2022/06/14 05:20:53;;;;;;;14.57;4.68;;;13.30;99.90;;;;;;5059572;28;20029;-73
2022/06/14 05:23:42;;;;;;;11.82;5.43;;;13.30;99.90;;;;;;5060220;28;20029;-73
2022/06/14 05:26:17;;;;;;;12.35;4.90;;;13.40;99.90;;;;;;5059958;28;20017;-73
2022/06/14 05:29:10;;;;;;;13.10;5.22;;;13.50;99.90;;;;;;5059944;28;20039;-73
2022/06/14 05:31:58;;;;;;;12.10;4.50;;;13.60;99.90;;;;;;5060585;28;20032;-74
2022/06/14 05:35:00;;;;;;;12.07;3.90;;;13.70;99.90;;;;;;5060260;28;20032;-74
2022/06/14 05:37:26;;;;;;;11.63;4.20;;;13.90;99.90;;;;;;5063666;28;20027;-73
2022/06/14 05:40:10;;;;;;;14.25;4.43;;;14.10;99.90;;;;;;5051056;28;20045;-73
2022/06/14 05:42:42;;;;;;;14.00;4.20;;;14.20;99.90;;;;;;5060216;28;20021;-72
2022/06/14 05:45:11;;;;;;;13.80;4.55;;;14.20;99.90;;;;;;5058424;28;20036;-73
2022/06/14 05:47:43;;;;;;;19.40;4.40;;;14.10;99.90;;;;;;5058494;28;20021;-73
2022/06/14 05:50:19;;;;;;;17.38;4.00;;;14.10;99.90;;;;;;5058451;28;20016;-73
2022/06/14 05:52:56;;;;;;;21.95;5.22;;;14.10;99.90;;;;;;5059128;28;20021;-72
2022/06/14 05:55:40;;;;;;;13.45;4.30;;;14.10;99.90;;;;;;5058082;28;20036;-73
2022/06/14 05:58:15;;;;;;;11.02;4.05;;;14.10;99.90;;;;;;5058202;28;20036;-74
2022/06/14 06:01:07;;;;;;;15.80;4.05;;;13.90;99.90;;;;;;5058449;28;20075;-73
2022/06/14 06:03:44;;;;;;;14.13;4.47;;;14.00;99.90;;;;;;5016882;28;20549;-74
2022/06/14 06:06:19;;;;;;;22.15;4.35;;;14.10;99.90;;;;;;5057883;28;20120;-74
2022/06/14 06:09:20;;;;;;;11.63;3.03;;;14.20;99.90;;;;;;5040968;28;20028;-73
2022/06/14 06:11:58;;;;;;;12.77;4.20;;;14.20;99.90;;;;;;5015737;28;20033;-73
2022/06/14 06:14:49;;;;;;;15.23;3.90;;;14.30;99.90;;;;;;5057562;28;20041;-73
2022/06/14 06:17:27;;;;;;;16.08;3.58;;;14.30;99.90;;;;;;5057905;28;20036;-73
2022/06/14 06:20:34;;;;;;;9.95;3.33;;;14.40;99.90;;;;;;5057790;28;20040;-73
2022/06/14 06:23:03;;;;;;;16.23;4.05;;;14.50;99.90;;;;;;5026737;28;20065;-74
2022/06/14 06:25:32;;;;;;;13.43;3.75;;;14.60;99.90;;;;;;5057877;28;20081;-73
2022/06/14 06:28:16;;;;;;;15.68;3.88;;;14.70;99.90;;;;;;5058356;28;20017;-73
2022/06/14 06:31:05;;;;;;;11.35;3.05;;;14.80;99.90;;;;;;5058283;28;20478;-73
2022/06/14 06:33:36;;;;;;;10.02;3.92;;;14.90;99.90;;;;;;5058733;28;20029;-74
2022/06/14 06:36:17;;;;;;;11.02;3.60;;;15.00;99.90;;;;;;5059079;28;20021;-73
2022/06/14 06:39:08;;;;;;;19.95;4.25;;;15.10;99.90;;;;;;5058866;28;20043;-74
2022/06/14 06:41:50;;;;;;;11.65;2.83;;;15.10;99.90;;;;;;5040106;28;20032;-73
2022/06/14 06:44:39;;;;;;;10.70;2.72;;;15.10;99.90;;;;;;5039859;28;20025;-74
2022/06/14 06:47:17;;;;;;;13.25;3.22;;;15.20;99.90;;;;;;5058460;28;20025;-74
2022/06/14 06:50:01;;;;;;;12.20;3.22;;;15.40;99.90;;;;;;5058606;28;20025;-73
2022/06/14 06:53:11;;;;;;;15.05;3.42;;;15.50;99.90;;;;;;5039244;28;20050;-72
2022/06/14 06:55:58;;;;;;;12.93;3.35;;;15.50;99.90;;;;;;5059317;28;20040;-71
2022/06/14 06:58:51;;;;;;;17.45;3.58;;;15.50;99.90;;;;;;5059175;28;20029;-71
2022/06/14 07:01:24;;;;;;;11.23;3.50;;;15.50;99.90;;;;;;5053098;28;20045;-72
2022/06/14 07:04:15;;;;;;;12.55;2.92;;;15.50;99.90;;;;;;5039301;28;20088;-72
2022/06/14 07:06:45;;;;;;;13.23;3.17;;;15.60;99.90;;;;;;5042113;28;20063;-72
2022/06/14 07:09:21;;;;;;;12.32;3.63;;;15.70;99.90;;;;;;5056451;28;20032;-72
2022/06/14 07:11:51;;;;;;;11.52;2.53;;;16.00;99.90;;;;;;5038970;28;20054;-72
2022/06/14 07:14:27;;;;;;;13.75;3.88;;;16.10;99.90;;;;;;5056613;28;20036;-72
2022/06/14 07:16:57;;;;;;;17.63;3.97;;;16.20;99.90;;;;;;5057979;28;20398;-72
2022/06/14 07:20:02;;;;;;;7.20;2.72;;;16.20;99.90;;;;;;5057457;28;20100;-72
2022/06/14 07:22:36;;;;;;;14.40;3.53;;;16.20;99.90;;;;;;5056325;28;20025;-71
2022/06/14 07:25:16;;;;;;;14.60;2.45;;;16.20;99.90;;;;;;5058112;28;20028;-71
2022/06/14 07:27:54;;;;;;;10.25;3.10;;;16.30;99.90;;;;;;5040158;28;20077;-71
2022/06/14 07:30:26;;;;;;;16.65;3.10;;;16.30;99.90;;;;;;5057812;28;20104;-71
2022/06/14 07:32:55;;;;;;;16.00;2.78;;;16.20;99.90;;;;;;5056999;28;20395;-71
2022/06/14 07:35:29;;;;;;;7.95;2.53;;;16.10;99.90;;;;;;5057617;28;20080;-71
2022/06/14 07:38:07;;;;;;;9.85;2.50;;;16.20;99.90;;;;;;5057994;28;20100;-71
2022/06/14 07:40:47;;;;;;;13.50;2.97;;;16.30;99.90;;;;;;5059984;28;20103;-71
2022/06/14 07:43:23;;;;;;;15.73;2.30;;;16.50;99.90;;;;;;5042778;28;20021;-71
2022/06/14 07:45:49;;;;;;;14.98;2.88;;;16.60;99.90;;;;;;5061760;28;20013;-70
2022/06/14 07:48:21;;;;;;;11.73;2.95;;;16.50;99.90;;;;;;5037365;28;20029;-72
2022/06/14 07:51:03;;;;;;;8.13;2.72;;;16.60;99.90;;;;;;5055601;28;20100;-71
2022/06/14 07:54:01;;;;;;;14.52;2.30;;;16.60;99.90;;;;;;5054804;28;20025;-71
2022/06/14 07:56:34;;;;;;;10.10;2.20;;;16.60;99.90;;;;;;5044851;28;20037;-71
2022/06/14 07:59:18;;;;;;;13.40;2.60;;;16.60;99.90;;;;;;5055012;28;20106;-71
2022/06/14 08:01:57;;;;;;;9.20;2.00;;;16.80;99.90;;;;;;5055727;28;20100;-71
2022/06/14 08:04:37;;;;;;;10.52;2.08;;;16.90;99.90;;;;;;5054948;28;20013;-71
2022/06/14 08:07:12;;;;;;;6.78;1.67;;;16.90;99.90;;;;;;5036724;28;20025;-71
2022/06/14 08:09:59;;;;;;;7.60;1.95;;;17.10;99.90;;;;;;5054785;28;20032;-71
2022/06/14 08:12:31;;;;;;;8.48;2.08;;;17.20;99.90;;;;;;5054259;28;20029;-72
2022/06/14 08:15:26;;;;;;;10.30;2.28;;;17.40;99.90;;;;;;5051527;28;20099;-71
2022/06/14 08:18:05;;;;;;;8.07;2.30;;;17.50;99.90;;;;;;5022479;28;20042;-72
2022/06/14 08:20:44;;;;;;;10.13;2.10;;;17.50;99.90;;;;;;5050461;28;20036;-72
2022/06/14 08:23:38;;;;;;;9.00;2.10;;;17.40;99.90;;;;;;5054394;28;20061;-72
2022/06/14 08:26:24;;;;;;;13.10;2.65;;;17.50;99.90;;;;;;5054877;28;20070;-72
2022/06/14 08:29:16;;;;;;;13.40;2.40;;;17.40;99.90;;;;;;5036924;28;20025;-72
2022/06/14 08:31:51;;;;;;;10.32;2.65;;;17.50;99.90;;;;;;5054329;28;20032;-72
2022/06/14 08:34:25;;;;;;;8.32;2.60;;;17.60;99.90;;;;;;5058525;28;20100;-72
2022/06/14 08:37:25;;;;;;;10.63;2.25;;;17.80;99.90;;;;;;5058966;28;20420;-72
2022/06/14 08:40:08;;;;;;;9.65;2.25;;;18.00;99.90;;;;;;5058912;28;20021;-72
2022/06/14 08:42:38;;;;;;;8.63;2.72;;;18.20;99.90;;;;;;5040789;28;20052;-72
2022/06/14 08:45:14;;;;;;;6.78;1.67;;;18.20;99.90;;;;;;5056880;28;20034;-72
2022/06/14 08:48:04;;;;;;;10.02;2.30;;;18.10;99.90;;;;;;5054313;28;20025;-72
2022/06/14 08:51:03;;;;;;;8.82;1.90;;;17.90;99.90;;;;;;5057059;28;20051;-72
2022/06/14 08:54:13;;;;;;;8.18;2.03;;;17.50;99.90;;;;;;5055204;28;20571;-72
2022/06/14 08:56:44;;;;;;;7.20;2.20;;;17.40;99.90;;;;;;5059230;28;20025;-72
2022/06/14 08:59:45;;;;;;;9.05;2.90;;;17.60;99.90;;;;;;5066658;28;20025;-72
2022/06/14 09:02:27;;;;;;;6.47;2.10;;;17.90;99.90;;;;;;5041838;28;20021;-72
2022/06/14 09:05:27;;;;;;;7.70;2.15;;;18.20;99.90;;;;;;5054751;28;20453;-72
2022/06/14 09:07:55;;;;;;;8.80;2.40;;;18.20;99.90;;;;;;5057123;28;20020;-72
2022/06/14 09:10:43;;;;;;;9.80;2.85;;;18.10;99.90;;;;;;5057042;28;20075;-72
2022/06/14 09:13:46;;;;;;;8.85;2.75;;;17.70;99.90;;;;;;5056003;28;20043;-72
2022/06/14 09:16:23;;;;;;;6.05;2.38;;;17.40;99.90;;;;;;5041921;28;20432;-71
2022/06/14 09:18:56;;;;;;;10.40;2.58;;;17.00;99.90;;;;;;5057712;28;20501;-71
2022/06/14 09:21:36;;;;;;;11.38;2.13;;;16.90;99.90;;;;;;5058231;28;20029;-72
2022/06/14 09:24:07;;;;;;;9.88;2.45;;;16.90;99.90;;;;;;5057042;28;20025;-72
2022/06/14 09:27:07;;;;;;;10.38;2.08;;;17.00;99.90;;;;;;5056885;28;20021;-72
2022/06/14 09:29:42;;;;;;;9.27;2.38;;;17.20;99.90;;;;;;5052076;28;20440;-71
2022/06/14 09:33:26;;;;;;;6.70;2.35;;;17.40;99.90;;;;;;5053595;28;20131;-72
2022/06/14 09:35:38;;;;;;;8.90;2.00;;;17.60;99.90;;;;;;5005123;28;20041;-72
2022/06/14 09:38:34;;;;;;;6.13;2.03;;;17.90;99.90;;;;;;5056711;28;20362;-72
2022/06/14 09:41:18;;;;;;;6.68;2.53;;;18.20;99.90;;;;;;5054787;28;20028;-71
2022/06/14 09:43:58;;;;;;;8.80;1.98;;;18.40;99.90;;;;;;5047413;28;20037;-72
2022/06/14 09:46:48;;;;;;;5.53;1.75;;;18.50;99.90;;;;;;5053725;28;20067;-72
2022/06/14 09:49:26;;;;;;;7.47;2.17;;;18.60;99.90;;;;;;5039783;28;20056;-72
2022/06/14 09:52:29;;;;;;;10.93;1.80;;;18.60;99.90;;;;;;5057324;28;20024;-72
2022/06/14 09:55:13;;;;;;;9.55;2.50;;;18.50;99.90;;;;;;5056670;28;20537;-72
2022/06/14 09:58:06;;;;;;;6.97;2.00;;;18.30;99.90;;;;;;5038809;28;20085;-72
2022/06/14 10:00:54;;;;;;;10.25;2.10;;;18.20;99.90;;;;;;5042173;28;20064;-72
2022/06/14 10:03:32;;;;;;;12.38;2.78;;;18.10;99.90;;;;;;5054944;28;20021;-72
2022/06/14 10:06:48;;;;;;;9.55;2.60;;;18.20;99.90;;;;;;5051062;28;20039;-72
2022/06/14 10:09:36;;;;;;;8.05;2.67;;;18.30;99.90;;;;;;5004805;28;20025;-72
2022/06/14 10:12:20;;;;;;;6.80;2.08;;;18.40;99.90;;;;;;5041496;28;20116;-72
2022/06/14 10:15:13;;;;;;;8.63;2.00;;;18.60;99.90;;;;;;5053722;28;20028;-72
2022/06/14 10:18:00;;;;;;;9.07;2.35;;;18.90;99.90;;;;;;5057372;28;20036;-72
2022/06/14 10:20:47;;;;;;;10.65;2.67;;;18.90;99.90;;;;;;5057267;28;20463;-72
2022/06/14 10:23:19;;;;;;;7.43;2.10;;;19.00;99.90;;;;;;5057114;28;20108;-72
2022/06/14 10:28:46;;;;;;;5.85;2.05;;;19.10;99.90;;;;;;5054723;28;20521;-71
2022/06/14 10:31:38;;;;;;;8.75;2.17;;;19.00;99.90;;;;;;5036245;28;20021;-71
2022/06/14 10:34:14;;;;;;;7.32;1.95;;;18.90;99.90;;;;;;5055599;28;20036;-71
2022/06/14 10:37:12;;;;;;;8.93;2.63;;;18.80;99.90;;;;;;5055307;28;20028;-71
2022/06/14 10:40:03;;;;;;;8.95;2.80;;;18.70;99.90;;;;;;5037010;28;20128;-72
2022/06/14 10:42:37;;;;;;;13.18;3.10;;;18.40;99.90;;;;;;5055739;28;20051;-73
2022/06/14 10:45:20;;;;;;;7.90;2.80;;;18.40;99.90;;;;;;5057251;28;20021;-72
2022/06/14 10:48:24;;;;;;;8.82;3.40;;;18.70;99.90;;;;;;5038306;28;20393;-72
2022/06/14 10:51:17;;;;;;;8.05;3.20;;;18.80;99.90;;;;;;5056603;28;20482;-72
2022/06/14 10:53:55;;;;;;;10.45;3.42;;;18.90;99.90;;;;;;5056199;28;20375;-72
2022/06/14 10:56:47;;;;;;;10.48;3.10;;;19.00;99.90;;;;;;5038345;28;20021;-72
2022/06/14 10:59:37;;;;;;;10.00;2.85;;;18.90;99.90;;;;;;5057508;28;20392;-72
2022/06/14 11:02:49;;;;;;;9.68;2.47;;;18.90;99.90;;;;;;5061890;28;20029;-72
2022/06/14 11:05:24;;;;;;;;;;;19.10;99.90;;;;;;5060947;28;20032;-71
2022/06/14 11:07:53;;;;;;;7.18;2.25;;;19.30;99.90;;;;;;5056938;28;20362;-71
2022/06/14 11:10:34;;;;;;;4.65;1.85;;;19.40;99.90;;;;;;5038308;28;20036;-71
2022/06/14 11:13:44;;;;;;;8.13;2.33;;;19.50;99.90;;;;;;5056044;28;20124;-71
2022/06/14 11:16:34;;;;;;;8.98;2.05;;;19.40;99.90;;;;;;5036412;28;20083;-72
2022/06/14 11:19:29;;;;;;;14.45;2.88;;;19.40;99.90;;;;;;5064151;28;20450;-52
2022/06/14 11:22:00;;;;;;;6.63;2.50;;;19.30;99.90;;;;;;5058177;28;20025;-54
2022/06/14 11:24:51;;;;;;;8.95;2.72;;;19.30;99.90;;;;;;5069185;28;20032;-53
2022/06/14 11:27:31;;;;;;;8.27;3.00;;;19.30;99.90;;;;;;5069177;28;20028;-54
2022/06/14 11:30:31;;;;;;;5.68;2.38;;;19.30;99.90;;;;;;5066332;28;20526;-53
2022/06/14 11:33:10;;;;;;;6.93;2.55;;;19.30;99.90;;;;;;5050449;28;20086;-52
2022/06/14 11:35:38;;;;;;;9.65;2.38;;;19.40;99.90;;;;;;5044048;28;20041;-52
2022/06/14 11:38:25;;;;;;;7.85;2.47;;;19.30;99.90;;;;;;5036708;28;20029;-53
2022/06/14 11:40:57;;;;;;;9.43;1.77;;;19.50;99.90;;;;;;5038740;28;20025;-55
2022/06/14 11:43:50;;;;;;;12.60;2.45;;;19.60;99.90;;;;;;5050999;28;20029;-55
2022/06/14 11:46:37;;;;;;;7.72;2.40;;;19.50;99.90;;;;;;5045000;28;20026;-52
2022/06/14 11:49:15;;;;;;;7.35;1.80;;;19.50;99.90;;;;;;5030620;28;20025;-55
2022/06/14 11:51:53;;;;;;;10.32;2.38;;;19.60;99.90;;;;;;5052675;28;20033;-54
2022/06/14 11:54:32;;;;;;;7.50;2.45;;;19.70;99.90;;;;;;5058903;28;20021;-55
2022/06/14 11:57:15;;;;;;;8.60;2.42;;;19.50;99.90;;;;;;5070245;28;20048;-55
2022/06/14 12:00:01;;;;;;;11.07;2.30;;;19.50;99.90;;;;;;5071096;28;20056;-52
2022/06/14 12:02:54;;;;;;;6.63;2.28;;;19.50;99.90;;;;;;5046841;28;20026;-52
2022/06/14 12:05:45;;;;;;;6.43;1.85;;;19.60;99.90;;;;;;5041471;28;20021;-56
2022/06/14 12:08:44;;;;;;;4.10;1.87;;;19.80;99.90;;;;;;5041067;28;20030;-57
2022/06/14 12:11:24;;;;;;;8.13;2.22;;;20.10;99.90;;;;;;5035342;28;20076;-54
2022/06/14 12:14:14;;;;;;;9.23;2.20;;;20.20;99.90;;;;;;5019857;23;20030;-72
2022/06/14 12:16:42;;;;;;;8.10;2.53;;;20.20;99.90;;;;;;5001536;28;20030;-72
2022/06/14 12:19:10;;;;;;;5.80;2.72;;;20.10;99.90;;;;;;4997439;28;20062;-72
2022/06/14 12:21:57;;;;;;;11.43;3.42;;;20.00;99.90;;;;;;4993576;28;20097;-72
2022/06/14 12:27:18;;;;;;;7.75;2.40;;;19.80;99.90;;;;;;4954880;29;20043;-73
2022/06/14 12:29:48;;;;;;;6.63;2.20;;;19.60;99.90;;;;;;4950292;28;20100;-72
2022/06/14 12:32:28;;;;;;;8.40;2.53;;;19.60;99.90;;;;;;4950064;29;20091;-72
2022/06/14 12:34:59;;;;;;;12.53;2.97;;;19.70;99.90;;;;;;4948590;29;20050;-72
2022/06/14 12:37:50;;;;;;;7.95;2.28;;;19.80;99.90;;;;;;4946084;29;20154;-71
2022/06/14 12:40:19;;;;;;;9.48;3.03;;;19.70;99.90;;;;;;4961124;28;20051;-73
2022/06/14 12:42:52;;;;;;;6.28;2.38;;;19.80;99.90;;;;;;4959661;28;20034;-73
2022/06/14 12:45:24;;;;;;;7.28;3.08;;;20.10;99.90;;;;;;4960685;28;20102;-72
2022/06/14 12:47:50;;;;;;;6.30;2.55;;;20.30;99.90;;;;;;4954657;28;20529;-72
2022/06/14 12:50:31;;;;;;;10.10;2.78;;;20.50;99.90;;;;;;4956098;29;20062;-72
2022/06/14 12:53:10;;;;;;;10.63;2.80;;;20.50;99.90;;;;;;4947003;29;20032;-72
2022/06/14 12:55:43;;;;;;;5.55;2.40;;;20.40;99.90;;;;;;4957154;29;20027;-72
2022/06/14 12:58:18;;;;;;;9.00;2.55;;;20.40;99.90;;;;;;4959245;28;20065;-72
2022/06/14 13:01:02;;;;;;;8.65;2.70;;;20.60;99.90;;;;;;4948781;29;20039;-72
2022/06/14 13:03:50;;;;;;;5.72;2.72;;;20.70;99.90;;;;;;4955642;29;20397;-72
2022/06/14 13:06:43;;;;;;;4.57;2.20;;;20.50;99.90;;;;;;4974168;28;20082;-71
2022/06/14 13:09:23;;;;;;;5.72;2.03;;;20.70;99.90;;;;;;4966015;28;20032;-71
2022/06/14 13:12:13;;;;;;;5.57;2.15;;;21.00;99.90;;;;;;4963702;28;20027;-71
2022/06/14 13:14:55;;;;;;;6.90;2.38;;;20.90;99.90;;;;;;4967879;28;20404;-72
2022/06/14 13:18:02;;;;;;;5.60;2.00;;;21.10;99.90;;;;;;4963254;28;20523;-71
2022/06/14 13:21:00;;;;;;;7.97;2.40;;;21.20;99.90;;;;;;4940974;29;20082;-71
2022/06/14 13:23:33;;;;;;;7.05;1.80;;;21.10;99.90;;;;;;4933463;29;20040;-72
2022/06/14 13:26:30;;;;;;;4.80;1.77;;;20.90;99.90;;;;;;4943805;28;20045;-72
2022/06/14 13:29:25;;;;;;;11.65;3.17;;;20.80;99.90;;;;;;4946570;28;20039;-72
2022/06/14 13:31:50;;;;;;;6.88;2.20;;;20.60;99.90;;;;;;4958715;28;20031;-71
2022/06/14 13:34:24;;;;;;;8.52;2.13;;;20.50;99.90;;;;;;4948650;28;20036;-71
2022/06/14 13:36:53;;;;;;;8.25;2.38;;;20.30;99.90;;;;;;4948382;29;20035;-72
2022/06/14 13:39:37;;;;;;;5.38;1.92;;;20.10;99.90;;;;;;4946772;29;20388;-74
2022/06/14 13:42:33;;;;;;;5.72;2.00;;;20.10;99.90;;;;;;4953119;29;20026;-72
2022/06/14 13:45:11;;;;;;;5.28;1.70;;;20.20;99.90;;;;;;4964144;28;20560;-72
2022/06/14 13:48:06;;;;;;;4.22;1.65;;;20.20;99.90;;;;;;4958542;28;20028;-71
2022/06/14 13:50:40;;;;;;;6.10;2.25;;;20.10;99.90;;;;;;4949139;28;20044;-70
2022/06/14 13:53:30;;;;;;;5.03;1.67;;;20.00;99.90;;;;;;4959020;29;20035;-72
2022/06/14 13:56:26;;;;;;;4.68;1.45;;;20.00;99.90;;;;;;4959114;29;20035;-72
2022/06/14 13:59:00;;;;;;;8.68;2.03;;;20.00;99.90;;;;;;4958098;29;20063;-72
2022/06/14 14:01:44;;;;;;;5.97;1.67;;;20.10;99.90;;;;;;4959484;29;20019;-73
2022/06/14 14:04:25;;;;;;;6.88;1.95;;;20.00;99.90;;;;;;4957704;28;20015;-72